Terminal Aerodrome Forecast
Issued by NWS

Home | Current Version | Previous Version | Text Only | Print | Product List | Glossary On
Versions: 1 2 3 4 5 6 7 8 9 10 11 12 13 14 15 16 17 18 19 20 21 22 23
000
FTAK31 PAFA 010538
TAFAUN
TAF
PAUN 010538Z 0106/0206 20016G25KT P6SM VCSH SCT035 OVC050
     FM010900 22020G30KT 3SM -RA BR SCT008 BKN020 OVC035
     FM011500 24022KT 3SM RA BR BKN008 OVC015=

USA.gov is the U.S. government's official web portal to all federal, state and local government web resources and services.